Time;durP1;ratioP1;P1;durP2;ratioP2;P2;SDS_P1;SDS_P2;PMS_P1;PMS_P2;Temp;Humidity;BMP_temperature;BMP_pressure;BME280_temperature;BME280_humidity;BME280_pressure;Samples;Min_cycle;Max_cycle;Signal;HPM_P1;HPM_P2
2021/06/14 00:01:58;;;;;;;15.13;8.83;;;14.80;88.20;;;;;;5051138;28;20056;-73
2021/06/14 00:04:24;;;;;;;16.47;9.87;;;14.80;88.50;;;;;;5050253;28;20052;-74
2021/06/14 00:06:50;;;;;;;11.03;7.80;;;14.80;88.60;;;;;;5052332;28;20131;-73
2021/06/14 00:09:19;;;;;;;19.90;9.90;;;14.80;88.60;;;;;;5054850;28;20069;-73
2021/06/14 00:11:46;;;;;;;13.63;8.60;;;14.70;88.60;;;;;;5054430;28;20061;-74
2021/06/14 00:14:11;;;;;;;9.67;7.10;;;14.70;88.60;;;;;;5054922;28;20049;-73
2021/06/14 00:16:37;;;;;;;14.13;8.97;;;14.60;88.80;;;;;;5054785;28;20060;-73
2021/06/14 00:19:07;;;;;;;17.27;9.13;;;14.60;88.80;;;;;;5054316;28;20049;-74
2021/06/14 00:21:34;;;;;;;12.77;9.00;;;14.60;88.90;;;;;;5054978;28;20143;-74
2021/06/14 00:24:00;;;;;;;13.70;10.00;;;14.60;88.80;;;;;;5054349;28;20052;-73
2021/06/14 00:26:26;;;;;;;16.43;10.13;;;14.60;88.80;;;;;;5054237;28;20049;-73
2021/06/14 00:28:52;;;;;;;11.20;8.93;;;14.60;88.90;;;;;;5054709;28;20063;-73
2021/06/14 00:31:17;;;;;;;10.97;7.57;;;14.50;88.90;;;;;;5054210;28;20076;-73
2021/06/14 00:33:43;;;;;;;9.93;8.03;;;14.50;89.10;;;;;;5053916;28;20513;-73
2021/06/14 00:36:10;;;;;;;13.07;9.73;;;14.50;89.10;;;;;;5054130;28;20339;-73
2021/06/14 00:38:37;;;;;;;13.87;9.30;;;14.40;89.30;;;;;;5053521;28;20045;-73
2021/06/14 00:41:04;;;;;;;16.17;9.27;;;14.40;89.50;;;;;;5054380;28;20060;-73
2021/06/14 00:43:32;;;;;;;14.20;9.37;;;14.40;89.80;;;;;;5054700;28;20057;-73
2021/06/14 00:45:58;;;;;;;13.70;9.33;;;14.30;89.80;;;;;;5053710;28;20133;-73
2021/06/14 00:48:24;;;;;;;10.67;7.90;;;14.30;90.00;;;;;;5054365;28;20045;-74
2021/06/14 00:50:59;;;;;;;13.73;9.40;;;14.20;90.10;;;;;;5054273;28;20053;-73
2021/06/14 00:53:34;;;;;;;16.73;9.90;;;14.20;90.10;;;;;;5053855;28;20045;-74
2021/06/14 00:56:01;;;;;;;12.70;9.53;;;14.20;90.20;;;;;;5054275;28;20048;-74
2021/06/14 00:58:27;;;;;;;15.07;10.40;;;14.10;90.20;;;;;;5054451;28;20044;-74
2021/06/14 01:00:54;;;;;;;12.67;9.10;;;14.00;90.20;;;;;;5053454;28;20143;-74
2021/06/14 01:03:20;;;;;;;14.87;9.47;;;14.00;90.40;;;;;;5053785;28;20097;-74
2021/06/14 01:05:49;;;;;;;17.83;10.57;;;13.90;90.40;;;;;;5054403;28;20136;-74
2021/06/14 01:08:14;;;;;;;15.43;10.67;;;13.90;90.60;;;;;;5053146;28;20079;-73
2021/06/14 01:10:42;;;;;;;16.00;11.43;;;13.90;90.70;;;;;;5054134;28;20166;-74
2021/06/14 01:13:10;;;;;;;14.37;10.17;;;13.80;90.80;;;;;;5053883;28;20056;-73
2021/06/14 01:15:47;;;;;;;15.50;10.30;;;13.90;90.80;;;;;;5053217;28;20037;-74
2021/06/14 01:18:18;;;;;;;13.67;10.10;;;13.90;90.80;;;;;;5053674;28;20091;-73
2021/06/14 01:20:55;;;;;;;14.93;9.43;;;13.80;90.80;;;;;;5053344;28;20064;-74
2021/06/14 01:23:53;;;;;;;13.93;10.07;;;13.80;90.80;;;;;;5053601;28;20049;-74
2021/06/14 01:26:22;;;;;;;17.57;11.23;;;13.80;90.80;;;;;;5053174;28;20048;-73
2021/06/14 01:28:52;;;;;;;20.07;11.27;;;13.80;90.90;;;;;;5053277;28;20048;-74
2021/06/14 01:31:20;;;;;;;15.10;10.30;;;13.70;91.00;;;;;;5053377;28;20227;-73
2021/06/14 01:33:46;;;;;;;14.80;11.50;;;13.70;91.00;;;;;;5053687;28;20053;-74
2021/06/14 01:36:16;;;;;;;15.57;11.80;;;13.70;91.00;;;;;;5052618;28;20068;-73
2021/06/14 01:38:45;;;;;;;15.10;12.03;;;13.70;91.10;;;;;;5053305;28;20486;-74
2021/06/14 01:41:13;;;;;;;18.67;11.93;;;13.70;91.10;;;;;;5053445;28;20045;-74
2021/06/14 01:43:41;;;;;;;20.77;13.03;;;13.70;91.20;;;;;;5052880;28;20053;-74
2021/06/14 01:46:10;;;;;;;19.03;12.40;;;13.60;91.20;;;;;;5053239;28;20251;-74
2021/06/14 01:48:38;;;;;;;14.13;11.77;;;13.60;91.20;;;;;;5053456;28;20045;-74
2021/06/14 01:51:08;;;;;;;16.83;11.13;;;13.60;91.30;;;;;;5052197;28;20512;-74
2021/06/14 01:53:35;;;;;;;14.60;10.77;;;13.50;91.40;;;;;;5053116;28;20057;-74
2021/06/14 01:56:01;;;;;;;17.60;12.10;;;13.50;91.40;;;;;;5052256;28;20048;-74
2021/06/14 01:58:29;;;;;;;20.57;12.07;;;13.50;91.40;;;;;;5053268;28;20124;-74
2021/06/14 02:00:55;;;;;;;15.10;10.70;;;13.50;91.50;;;;;;5053376;28;20055;-74
2021/06/14 02:03:22;;;;;;;16.20;11.60;;;13.50;91.50;;;;;;5052401;28;20139;-74
2021/06/14 02:05:48;;;;;;;16.03;11.03;;;13.40;91.50;;;;;;5053282;28;20056;-74
2021/06/14 02:08:17;;;;;;;15.50;11.83;;;13.40;91.50;;;;;;5052388;28;20071;-74
2021/06/14 02:10:43;;;;;;;18.83;12.33;;;13.40;91.60;;;;;;5052532;28;20053;-74
2021/06/14 02:13:10;;;;;;;22.23;12.50;;;13.40;91.60;;;;;;5052840;28;20505;-74
2021/06/14 02:15:36;;;;;;;15.53;10.80;;;13.40;91.60;;;;;;5052990;28;20045;-74
2021/06/14 02:18:03;;;;;;;14.53;11.83;;;13.40;91.60;;;;;;5051724;28;20059;-74
2021/06/14 02:20:29;;;;;;;15.53;11.13;;;13.30;91.60;;;;;;5052750;28;20041;-74
2021/06/14 02:22:56;;;;;;;18.10;11.93;;;13.30;91.70;;;;;;5052829;28;20048;-74
2021/06/14 02:25:22;;;;;;;16.17;11.83;;;13.30;91.70;;;;;;5052046;28;20064;-74
2021/06/14 02:27:47;;;;;;;19.30;12.27;;;13.30;91.70;;;;;;5052863;28;20139;-74
2021/06/14 02:30:20;;;;;;;16.00;11.30;;;13.30;91.80;;;;;;5051973;28;20048;-74
2021/06/14 02:32:48;;;;;;;18.83;12.13;;;13.20;91.80;;;;;;5052244;28;20056;-74
2021/06/14 02:35:13;;;;;;;15.80;10.27;;;13.20;91.90;;;;;;5052200;28;20083;-74
2021/06/14 02:37:45;;;;;;;18.07;11.00;;;13.20;91.90;;;;;;5052556;28;20126;-74
2021/06/14 02:40:12;;;;;;;15.95;11.32;;;13.30;91.90;;;;;;5051728;28;20060;-74
2021/06/14 02:42:39;;;;;;;15.10;10.67;;;13.30;91.80;;;;;;5052423;28;20057;-74
2021/06/14 02:45:06;;;;;;;17.67;11.50;;;13.20;91.80;;;;;;5051548;28;20045;-74
2021/06/14 02:47:34;;;;;;;16.73;10.37;;;13.20;91.80;;;;;;5052487;28;20053;-74
2021/06/14 02:50:01;;;;;;;18.77;11.93;;;13.20;91.80;;;;;;5052071;28;20045;-75
2021/06/14 02:52:29;;;;;;;13.53;10.83;;;13.20;91.80;;;;;;5051438;28;20049;-74
2021/06/14 02:55:00;;;;;;;15.07;11.70;;;13.20;91.80;;;;;;5034613;28;20048;-74
2021/06/14 02:57:30;;;;;;;13.00;9.18;;;13.20;91.80;;;;;;5052285;28;20068;-74
2021/06/14 02:59:55;;;;;;;18.27;11.67;;;13.20;91.80;;;;;;5051489;28;20386;-74
2021/06/14 03:02:26;;;;;;;15.33;11.00;;;13.20;91.80;;;;;;5051625;28;20093;-74
2021/06/14 03:04:53;;;;;;;16.63;11.13;;;13.20;91.70;;;;;;5052195;28;20062;-74
2021/06/14 03:07:23;;;;;;;15.60;10.97;;;13.20;91.70;;;;;;5050919;28;20045;-74
2021/06/14 03:09:50;;;;;;;15.68;11.73;;;13.10;91.70;;;;;;5051738;28;20053;-74
2021/06/14 03:12:17;;;;;;;17.80;11.37;;;13.20;91.80;;;;;;5051677;28;20056;-74
2021/06/14 03:14:45;;;;;;;15.80;11.33;;;13.20;91.80;;;;;;5050932;28;20075;-74
2021/06/14 03:17:12;;;;;;;14.03;9.93;;;13.20;91.70;;;;;;5051447;28;20064;-75
2021/06/14 03:19:39;;;;;;;16.13;11.47;;;13.20;91.70;;;;;;5051867;28;20040;-75
2021/06/14 03:22:08;;;;;;;13.07;9.70;;;13.20;91.60;;;;;;5050689;28;20148;-74
2021/06/14 03:24:34;;;;;;;10.13;7.37;;;13.20;91.60;;;;;;5051637;28;20533;-74
2021/06/14 03:27:00;;;;;;;14.73;8.17;;;13.10;91.60;;;;;;5051827;28;20068;-74
2021/06/14 03:29:28;;;;;;;14.97;10.83;;;13.10;91.60;;;;;;5050791;28;20060;-74
2021/06/14 03:31:54;;;;;;;15.83;10.50;;;13.10;91.60;;;;;;5051096;28;20524;-74
2021/06/14 03:34:21;;;;;;;9.67;7.80;;;13.10;91.60;;;;;;5050161;28;20049;-74
2021/06/14 03:36:48;;;;;;;14.37;10.43;;;13.10;91.70;;;;;;5051311;28;20052;-74
2021/06/14 03:39:16;;;;;;;14.60;10.83;;;13.10;91.70;;;;;;5050844;28;20555;-74
2021/06/14 03:41:46;;;;;;;15.00;10.50;;;13.10;91.70;;;;;;5049611;28;20064;-74
2021/06/14 03:44:12;;;;;;;16.13;10.17;;;13.10;91.70;;;;;;5051066;28;20056;-74
2021/06/14 03:46:39;;;;;;;16.17;10.30;;;13.10;91.70;;;;;;5051185;28;20117;-74
2021/06/14 03:49:05;;;;;;;10.70;7.70;;;13.10;91.70;;;;;;5050402;28;20045;-73
2021/06/14 03:51:31;;;;;;;12.37;8.50;;;13.10;91.70;;;;;;5051356;28;20049;-74
2021/06/14 03:53:59;;;;;;;13.50;9.50;;;13.10;91.80;;;;;;5050945;28;20529;-74
2021/06/14 03:56:26;;;;;;;17.77;10.47;;;13.10;91.80;;;;;;5050223;28;20092;-74
2021/06/14 03:58:52;;;;;;;13.47;8.90;;;13.10;91.80;;;;;;5051246;28;20105;-74
2021/06/14 04:01:17;;;;;;;17.03;10.53;;;13.20;91.70;;;;;;5050903;28;20458;-74
2021/06/14 04:03:47;;;;;;;15.10;9.77;;;13.20;91.80;;;;;;5050411;28;20130;-74
2021/06/14 04:06:12;;;;;;;12.90;9.87;;;13.20;91.80;;;;;;5050625;28;20494;-73
2021/06/14 04:08:38;;;;;;;10.50;6.97;;;13.20;91.80;;;;;;5051123;28;20056;-73
2021/06/14 04:11:04;;;;;;;12.10;7.90;;;13.20;91.80;;;;;;5049821;28;20076;-73
2021/06/14 04:13:30;;;;;;;13.33;8.30;;;13.30;91.80;;;;;;5051225;28;20071;-74
2021/06/14 04:15:56;;;;;;;19.33;9.20;;;13.30;91.70;;;;;;5051041;28;20500;-74
2021/06/14 04:18:21;;;;;;;12.47;7.63;;;13.40;91.70;;;;;;5049825;28;20131;-74
2021/06/14 04:20:47;;;;;;;13.90;8.70;;;13.40;91.50;;;;;;5051074;28;20132;-74
2021/06/14 04:23:13;;;;;;;15.60;9.43;;;13.50;91.40;;;;;;5050758;28;20051;-74
2021/06/14 04:25:38;;;;;;;14.50;9.00;;;13.50;91.40;;;;;;5050302;28;20387;-74
2021/06/14 04:28:06;;;;;;;15.33;8.97;;;13.60;91.50;;;;;;5050642;28;20494;-74
2021/06/14 04:30:34;;;;;;;14.43;9.07;;;13.60;91.50;;;;;;5050593;28;20470;-73
2021/06/14 04:33:00;;;;;;;15.70;8.63;;;13.70;91.50;;;;;;5050121;28;20140;-73
2021/06/14 04:35:26;;;;;;;15.00;9.53;;;13.80;91.50;;;;;;5050660;28;20131;-73
2021/06/14 04:37:51;;;;;;;11.90;8.20;;;13.90;91.20;;;;;;5049655;28;20099;-73
2021/06/14 04:40:18;;;;;;;14.33;8.30;;;14.00;91.20;;;;;;5050569;28;20056;-73
2021/06/14 04:42:44;;;;;;;15.87;9.30;;;14.10;91.20;;;;;;5050768;28;20130;-74
2021/06/14 04:45:10;;;;;;;12.13;8.27;;;14.20;90.90;;;;;;5049896;28;20435;-73
2021/06/14 04:47:36;;;;;;;14.47;8.77;;;14.30;90.50;;;;;;5050365;28;20421;-73
2021/06/14 04:50:04;;;;;;;12.90;8.60;;;14.50;90.10;;;;;;5050250;28;20045;-73
2021/06/14 04:52:29;;;;;;;18.10;9.43;;;14.60;89.40;;;;;;5050636;28;20140;-73
2021/06/14 04:54:55;;;;;;;19.00;9.60;;;14.70;89.00;;;;;;5054375;28;20129;-73
2021/06/14 04:57:21;;;;;;;14.80;9.13;;;14.70;88.50;;;;;;5053704;28;20476;-73
2021/06/14 04:59:47;;;;;;;12.13;9.13;;;14.90;88.00;;;;;;5053335;28;20521;-73
2021/06/14 05:02:12;;;;;;;16.27;9.07;;;15.00;87.30;;;;;;5053618;28;20077;-73
2021/06/14 05:04:38;;;;;;;14.93;8.90;;;15.20;86.90;;;;;;5054322;28;20119;-74
2021/06/14 05:07:04;;;;;;;15.07;8.30;;;15.30;86.10;;;;;;5052890;28;20135;-73
2021/06/14 05:09:30;;;;;;;12.30;8.23;;;15.40;85.50;;;;;;5054063;28;20068;-73
2021/06/14 05:11:55;;;;;;;15.27;8.60;;;15.40;85.00;;;;;;5054165;28;20072;-74
2021/06/14 05:14:21;;;;;;;14.93;8.57;;;15.50;84.50;;;;;;5053095;28;20048;-73
2021/06/14 05:16:46;;;;;;;14.07;8.17;;;15.60;83.80;;;;;;5053921;28;20106;-73
2021/06/14 05:19:12;;;;;;;13.70;8.80;;;15.80;82.90;;;;;;5053775;28;20213;-72
2021/06/14 05:21:38;;;;;;;16.23;8.90;;;15.90;81.80;;;;;;5053036;28;20041;-73
2021/06/14 05:24:04;;;;;;;13.30;7.83;;;16.00;81.50;;;;;;5053333;28;20052;-73
2021/06/14 05:26:30;;;;;;;14.10;8.30;;;16.10;81.20;;;;;;5053829;28;20056;-73
2021/06/14 05:28:56;;;;;;;12.40;8.07;;;16.10;81.00;;;;;;5053021;28;20151;-74
2021/06/14 05:31:21;;;;;;;13.47;8.07;;;16.10;80.60;;;;;;5053412;28;20436;-73
2021/06/14 05:33:47;;;;;;;10.97;7.53;;;16.20;80.30;;;;;;5053667;28;20049;-73
2021/06/14 05:36:13;;;;;;;11.30;7.50;;;16.20;80.00;;;;;;5052575;28;20139;-73
2021/06/14 05:38:39;;;;;;;12.93;7.03;;;16.30;79.70;;;;;;5053343;28;20413;-73
2021/06/14 05:41:05;;;;;;;10.60;6.63;;;16.40;79.60;;;;;;5051179;28;20110;-73
2021/06/14 05:43:32;;;;;;;10.77;6.70;;;16.50;78.90;;;;;;5053466;28;20052;-74
2021/06/14 05:45:57;;;;;;;10.57;6.50;;;16.60;78.30;;;;;;5053045;28;20041;-74
2021/06/14 05:48:23;;;;;;;10.50;6.80;;;16.80;77.60;;;;;;5052632;28;20135;-73
2021/06/14 05:50:50;;;;;;;9.93;6.83;;;16.80;77.00;;;;;;5052468;28;20162;-73
2021/06/14 05:53:15;;;;;;;14.27;6.93;;;16.90;76.60;;;;;;5052763;28;20505;-73
2021/06/14 05:55:41;;;;;;;11.57;5.97;;;17.00;76.20;;;;;;5053904;28;20049;-72
2021/06/14 05:58:07;;;;;;;12.30;6.17;;;17.00;75.90;;;;;;5052650;28;20053;-72
2021/06/14 06:00:34;;;;;;;13.07;6.73;;;17.10;75.20;;;;;;5053142;28;20084;-72
2021/06/14 06:02:59;;;;;;;11.17;5.57;;;17.30;74.40;;;;;;5052116;28;20413;-72
2021/06/14 06:05:25;;;;;;;11.33;6.30;;;17.50;73.70;;;;;;5052258;28;20049;-72
2021/06/14 06:07:51;;;;;;;10.50;5.70;;;17.60;73.00;;;;;;5053060;28;20053;-73
2021/06/14 06:10:17;;;;;;;9.60;5.87;;;17.60;72.60;;;;;;5052212;28;20056;-75
2021/06/14 06:12:42;;;;;;;14.63;6.07;;;17.70;71.80;;;;;;5053307;28;20063;-73
2021/06/14 06:15:12;;;;;;;11.63;6.20;;;17.80;71.20;;;;;;5052886;28;20041;-71
2021/06/14 06:17:40;;;;;;;9.80;5.82;;;17.80;70.80;;;;;;5051750;28;20131;-73
2021/06/14 06:20:13;;;;;;;10.37;5.20;;;17.90;70.80;;;;;;5052745;28;20049;-73
2021/06/14 06:22:40;;;;;;;10.90;6.10;;;17.90;70.50;;;;;;5052986;28;20053;-73
2021/06/14 06:25:08;;;;;;;9.13;5.33;;;18.00;70.40;;;;;;5051863;28;20052;-73
2021/06/14 06:27:33;;;;;;;10.93;5.20;;;18.10;69.50;;;;;;5052402;28;20132;-73
2021/06/14 06:29:59;;;;;;;7.00;4.57;;;18.20;69.20;;;;;;5052813;28;20132;-72
2021/06/14 06:32:27;;;;;;;10.67;5.23;;;18.20;69.10;;;;;;5050336;28;20049;-73
2021/06/14 06:34:53;;;;;;;11.90;5.70;;;18.30;68.90;;;;;;5033489;28;20068;-72
2021/06/14 06:37:18;;;;;;;8.80;4.90;;;18.40;68.50;;;;;;5050270;28;20132;-72
2021/06/14 06:39:44;;;;;;;10.60;5.17;;;18.40;68.10;;;;;;5051358;28;20436;-72
2021/06/14 06:42:10;;;;;;;7.77;5.37;;;18.50;67.90;;;;;;5050855;28;20091;-73
2021/06/14 06:44:36;;;;;;;8.10;4.70;;;18.60;67.90;;;;;;5050056;28;20045;-74
2021/06/14 06:47:04;;;;;;;9.17;5.30;;;18.70;67.30;;;;;;5050887;28;20052;-72
2021/06/14 06:49:30;;;;;;;10.43;5.03;;;18.80;66.10;;;;;;5050013;28;20052;-72
2021/06/14 06:51:56;;;;;;;7.77;4.80;;;18.90;65.40;;;;;;5049834;28;20433;-72
2021/06/14 06:54:22;;;;;;;8.50;4.87;;;18.90;65.40;;;;;;5050761;28;20049;-72
2021/06/14 06:56:51;;;;;;;9.83;4.93;;;19.00;65.40;;;;;;5050456;28;20045;-73
2021/06/14 06:59:17;;;;;;;9.53;5.07;;;19.10;65.20;;;;;;5049528;28;20452;-72
2021/06/14 07:01:44;;;;;;;10.63;5.03;;;19.20;64.90;;;;;;5050294;28;20505;-74
2021/06/14 07:04:10;;;;;;;8.33;4.87;;;19.30;64.00;;;;;;5050624;28;20129;-77
2021/06/14 07:06:36;;;;;;;8.27;4.23;;;19.40;63.70;;;;;;5049494;28;20213;-73
2021/06/14 07:09:04;;;;;;;9.43;4.87;;;19.50;63.50;;;;;;5050371;28;20079;-73
2021/06/14 07:11:30;;;;;;;11.00;5.30;;;19.60;63.40;;;;;;5050184;28;20435;-74
2021/06/14 07:13:56;;;;;;;9.80;4.90;;;19.70;63.30;;;;;;5049922;28;20041;-73
2021/06/14 07:16:23;;;;;;;13.10;5.97;;;19.70;62.50;;;;;;5050369;28;20075;-74
2021/06/14 07:18:51;;;;;;;10.10;4.80;;;19.80;61.60;;;;;;5051335;28;20040;-72
2021/06/14 07:21:17;;;;;;;8.47;5.00;;;19.90;61.40;;;;;;5050113;28;20105;-73
2021/06/14 07:23:42;;;;;;;12.27;4.80;;;20.00;61.70;;;;;;5051158;28;20068;-76
2021/06/14 07:26:08;;;;;;;9.93;5.13;;;20.10;61.10;;;;;;5050464;28;20084;-73
2021/06/14 07:28:35;;;;;;;10.33;4.67;;;20.10;60.80;;;;;;5050321;28;20473;-74
2021/06/14 07:31:01;;;;;;;10.03;5.20;;;20.20;61.20;;;;;;5050283;28;20053;-74
2021/06/14 07:33:27;;;;;;;9.90;5.30;;;20.30;61.20;;;;;;5050538;28;20049;-73
2021/06/14 07:35:53;;;;;;;9.93;4.83;;;20.30;61.00;;;;;;5050960;28;20554;-74
2021/06/14 07:38:19;;;;;;;8.07;4.50;;;20.40;60.90;;;;;;5050767;28;20135;-74
2021/06/14 07:40:45;;;;;;;9.70;5.10;;;20.50;60.60;;;;;;5050388;28;20126;-75
2021/06/14 07:43:12;;;;;;;9.43;4.60;;;20.50;59.80;;;;;;5050872;28;20134;-74
2021/06/14 07:45:46;;;;;;;8.90;5.00;;;20.50;59.30;;;;;;5051232;28;20045;-73
2021/06/14 07:48:13;;;;;;;12.70;5.10;;;20.60;59.50;;;;;;5049957;28;20049;-73
2021/06/14 07:50:40;;;;;;;11.23;5.10;;;20.60;59.10;;;;;;5050775;28;20049;-73
2021/06/14 07:53:05;;;;;;;8.93;4.67;;;20.70;58.90;;;;;;5050348;28;20393;-73
2021/06/14 07:55:32;;;;;;;10.77;5.03;;;20.70;58.80;;;;;;5050125;28;20049;-75
2021/06/14 07:57:57;;;;;;;9.43;4.57;;;20.80;58.30;;;;;;5050492;28;20053;-75
2021/06/14 08:00:24;;;;;;;8.80;4.63;;;20.90;57.80;;;;;;5051012;28;20115;-74
2021/06/14 08:02:50;;;;;;;7.03;4.43;;;20.90;57.40;;;;;;5049854;28;20056;-75
2021/06/14 08:05:16;;;;;;;12.43;4.53;;;21.00;57.10;;;;;;5050482;28;20483;-75
2021/06/14 08:07:42;;;;;;;8.53;4.63;;;21.00;57.00;;;;;;5050313;28;20246;-73
2021/06/14 08:10:13;;;;;;;11.33;5.03;;;21.10;56.40;;;;;;5049622;28;20147;-75
2021/06/14 08:12:44;;;;;;;12.35;4.47;;;21.10;56.10;;;;;;5030934;28;20129;-76
2021/06/14 08:15:10;;;;;;;8.48;4.90;;;21.30;56.00;;;;;;5030869;28;20049;-76
2021/06/14 08:17:36;;;;;;;7.97;4.40;;;21.40;55.70;;;;;;5030144;28;20055;-75
2021/06/14 08:20:16;;;;;;;11.13;5.33;;;21.50;55.30;;;;;;5030819;28;20128;-74
2021/06/14 08:25:29;;;;;;;10.60;4.50;;;21.70;55.20;;;;;;5030949;28;20509;-71
2021/06/14 08:27:54;;;;;;;7.97;4.47;;;21.70;55.50;;;;;;5032946;28;20056;-71
2021/06/14 08:30:22;;;;;;;7.97;4.13;;;21.80;55.90;;;;;;5033672;28;20523;-71
2021/06/14 08:32:49;;;;;;;9.97;4.37;;;21.90;56.00;;;;;;5034699;28;20057;-72
2021/06/14 08:35:16;;;;;;;7.57;4.40;;;22.10;55.80;;;;;;5034584;28;20513;-72
2021/06/14 08:37:44;;;;;;;6.30;4.37;;;22.10;55.40;;;;;;5034116;28;20163;-71
2021/06/14 08:40:20;;;;;;;10.33;4.37;;;22.20;54.80;;;;;;5034790;28;20087;-71
2021/06/14 08:42:46;;;;;;;6.85;3.80;;;22.30;54.30;;;;;;5035037;28;20057;-72
2021/06/14 08:45:13;;;;;;;9.35;4.57;;;22.50;54.30;;;;;;5033864;28;20115;-74
2021/06/14 08:47:42;;;;;;;11.05;4.00;;;22.70;53.20;;;;;;5034927;28;20470;-75
2021/06/14 08:50:11;;;;;;;8.93;4.13;;;22.70;53.10;;;;;;5034550;28;20050;-71
2021/06/14 08:52:37;;;;;;;8.15;3.90;;;22.80;52.60;;;;;;5033566;28;20496;-71
2021/06/14 08:55:06;;;;;;;8.57;3.83;;;22.80;52.80;;;;;;5034453;28;20053;-72
2021/06/14 08:57:32;;;;;;;10.98;4.55;;;22.90;52.60;;;;;;5034601;28;20087;-71
2021/06/14 08:59:58;;;;;;;9.05;4.43;;;22.90;52.40;;;;;;5033404;28;20152;-70
2021/06/14 09:02:24;;;;;;;7.70;3.80;;;23.00;52.30;;;;;;5034359;28;20045;-71
2021/06/14 09:04:50;;;;;;;10.52;4.35;;;23.00;51.70;;;;;;5034344;28;20041;-73
2021/06/14 09:07:16;;;;;;;10.68;4.78;;;23.00;51.00;;;;;;5033756;28;20092;-73
2021/06/14 09:09:42;;;;;;;7.22;4.80;;;23.10;51.10;;;;;;5034652;28;20136;-73
2021/06/14 09:12:09;;;;;;;9.13;4.30;;;23.00;50.60;;;;;;5033408;28;20132;-72
2021/06/14 09:14:40;;;;;;;9.00;3.80;;;23.00;50.90;;;;;;5034174;28;20509;-73
2021/06/14 09:17:15;;;;;;;11.88;5.07;;;23.20;51.50;;;;;;5033620;28;20494;-72
2021/06/14 09:19:48;;;;;;;8.93;4.90;;;23.40;51.20;;;;;;5033611;28;20049;-73
2021/06/14 09:22:21;;;;;;;10.30;5.10;;;23.60;51.20;;;;;;5033745;28;20084;-72
2021/06/14 09:24:58;;;;;;;11.13;5.13;;;24.00;51.30;;;;;;5034220;28;20443;-71
2021/06/14 09:27:39;;;;;;;7.35;4.40;;;24.30;50.10;;;;;;5033279;28;20056;-72
2021/06/14 09:30:24;;;;;;;13.43;5.10;;;24.50;49.30;;;;;;5034005;28;20136;-72
2021/06/14 09:32:55;;;;;;;10.10;4.80;;;24.70;49.30;;;;;;5033467;28;20060;-72
2021/06/14 09:35:22;;;;;;;9.55;4.72;;;24.90;48.80;;;;;;5033074;28;20057;-72
2021/06/14 09:38:17;;;;;;;7.57;4.43;;;25.10;48.20;;;;;;5033541;28;20053;-73
2021/06/14 09:40:44;;;;;;;10.80;4.72;;;25.20;44.80;;;;;;5012384;28;20085;-72
2021/06/14 09:43:27;;;;;;;8.98;4.68;;;25.20;46.10;;;;;;5052090;28;20202;-73
2021/06/14 09:45:54;;;;;;;9.07;4.45;;;25.30;45.40;;;;;;5047682;28;20140;-72
2021/06/14 09:48:22;;;;;;;7.32;4.05;;;25.50;45.20;;;;;;5033328;28;20140;-70
2021/06/14 09:50:51;;;;;;;12.07;4.65;;;25.60;44.40;;;;;;5046469;28;20150;-72
2021/06/14 09:53:20;;;;;;;7.35;4.88;;;25.60;43.90;;;;;;5050145;28;20056;-72
2021/06/14 09:55:51;;;;;;;9.93;5.15;;;25.60;43.70;;;;;;5045573;28;20076;-78
2021/06/14 09:58:21;;;;;;;10.13;4.55;;;25.50;43.60;;;;;;5036504;28;20148;-72
2021/06/14 10:00:52;;;;;;;12.07;4.80;;;25.50;43.70;;;;;;5033497;28;20041;-74
2021/06/14 10:03:18;;;;;;;11.52;4.70;;;25.50;44.00;;;;;;5032653;28;20053;-75
2021/06/14 10:05:46;;;;;;;8.25;4.18;;;25.60;44.00;;;;;;5033231;28;20051;-74
2021/06/14 10:08:12;;;;;;;9.65;4.50;;;25.80;43.80;;;;;;5033134;28;20115;-77
2021/06/14 10:10:39;;;;;;;7.90;4.13;;;25.90;43.50;;;;;;5033439;28;20057;-75
2021/06/14 10:13:05;;;;;;;7.55;3.90;;;26.00;43.90;;;;;;5033116;28;20049;-76
2021/06/14 10:15:36;;;;;;;9.27;4.28;;;26.10;43.80;;;;;;5033564;28;20478;-82
2021/06/14 10:18:04;;;;;;;11.75;4.05;;;26.10;42.90;;;;;;5033989;28;20115;-81
2021/06/14 10:20:31;;;;;;;10.40;3.95;;;26.10;42.40;;;;;;5034225;28;20052;-77
2021/06/14 10:23:00;;;;;;;11.93;4.50;;;26.10;42.30;;;;;;5032696;28;20056;-75
2021/06/14 10:25:26;;;;;;;8.57;4.43;;;26.10;42.10;;;;;;5033411;28;20065;-77
2021/06/14 10:27:53;;;;;;;9.93;4.35;;;26.10;42.40;;;;;;5049758;28;20098;-75
2021/06/14 10:30:21;;;;;;;10.50;4.60;;;26.10;42.10;;;;;;5071759;28;20501;-73
2021/06/14 10:32:48;;;;;;;9.02;4.10;;;26.00;42.00;;;;;;5072422;28;20181;-73
2021/06/14 10:35:16;;;;;;;9.13;4.28;;;26.00;41.70;;;;;;5072372;28;20044;-76
2021/06/14 10:37:43;;;;;;;10.88;4.90;;;26.00;42.20;;;;;;5071905;28;20076;-75
2021/06/14 10:40:15;;;;;;;9.48;4.57;;;26.10;42.00;;;;;;5054177;28;20537;-75
2021/06/14 10:42:44;;;;;;;8.63;4.75;;;26.20;42.40;;;;;;5072515;28;20044;-76
2021/06/14 10:45:19;;;;;;;9.30;5.20;;;26.30;42.60;;;;;;5071821;28;20044;-76
2021/06/14 10:47:49;;;;;;;8.98;4.93;;;26.40;41.60;;;;;;5073150;28;20040;-76
2021/06/14 10:50:19;;;;;;;9.30;4.55;;;26.30;42.20;;;;;;5071830;28;20048;-77
2021/06/14 10:52:46;;;;;;;10.55;4.97;;;26.40;42.90;;;;;;5071922;28;20140;-76
2021/06/14 10:55:16;;;;;;;9.98;4.53;;;26.50;42.90;;;;;;5072382;28;20056;-76
2021/06/14 10:57:42;;;;;;;7.40;4.82;;;26.60;42.60;;;;;;5071839;28;20306;-78
2021/06/14 11:00:21;;;;;;;10.80;4.95;;;26.70;42.90;;;;;;5072207;28;20481;-72
2021/06/14 11:03:04;;;;;;;11.52;4.70;;;26.70;42.60;;;;;;5071881;28;20568;-74
2021/06/14 11:05:41;;;;;;;9.00;5.13;;;26.70;42.90;;;;;;5070894;28;20082;-73
2021/06/14 11:08:14;;;;;;;9.57;5.05;;;26.70;42.30;;;;;;5069725;28;20401;-72
2021/06/14 11:10:41;;;;;;;9.38;5.00;;;26.60;42.00;;;;;;5072202;28;20056;-74
2021/06/14 11:13:12;;;;;;;9.20;4.25;;;26.60;42.10;;;;;;5070970;28;20056;-73
2021/06/14 11:15:40;;;;;;;9.35;4.00;;;26.60;42.60;;;;;;5071836;28;20388;-73
2021/06/14 11:18:07;;;;;;;9.75;3.92;;;26.70;42.80;;;;;;5071367;28;20052;-72
2021/06/14 11:20:35;;;;;;;7.43;4.65;;;26.80;42.20;;;;;;5071029;28;20515;-75
2021/06/14 11:23:01;;;;;;;6.75;4.07;;;26.90;41.70;;;;;;5071782;28;20044;-76
2021/06/14 11:25:33;;;;;;;8.95;3.92;;;27.00;41.30;;;;;;5072057;28;20047;-73
2021/06/14 11:28:03;;;;;;;7.50;4.00;;;27.00;41.40;;;;;;5071907;28;20059;-74
2021/06/14 11:30:31;;;;;;;8.63;4.05;;;27.00;41.30;;;;;;5071666;28;20070;-76
2021/06/14 11:32:57;;;;;;;8.55;3.70;;;27.10;41.20;;;;;;5070741;28;20126;-72
2021/06/14 11:35:24;;;;;;;8.57;4.57;;;27.00;41.30;;;;;;5071933;28;20067;-79
2021/06/14 11:37:52;;;;;;;8.50;4.05;;;27.00;41.20;;;;;;5071865;28;20062;-79
2021/06/14 11:40:26;;;;;;;13.43;5.55;;;26.80;41.40;;;;;;5070840;28;20063;-74
2021/06/14 11:42:54;;;;;;;8.98;4.63;;;26.70;41.90;;;;;;5072059;28;20045;-73
2021/06/14 11:45:37;;;;;;;7.78;4.45;;;26.70;42.00;;;;;;5071540;28;20044;-75
2021/06/14 11:48:16;;;;;;;12.05;4.40;;;26.80;42.20;;;;;;5070896;28;20056;-77
2021/06/14 11:50:42;;;;;;;8.38;4.25;;;26.80;41.70;;;;;;5071905;28;20056;-79
2021/06/14 11:53:09;;;;;;;13.52;4.88;;;26.80;41.30;;;;;;5071097;28;20052;-73
2021/06/14 11:55:37;;;;;;;11.30;4.57;;;26.80;41.40;;;;;;5070543;28;20055;-76
2021/06/14 11:58:06;;;;;;;6.88;4.03;;;26.80;41.40;;;;;;5071296;28;20057;-75
2021/06/14 12:00:38;;;;;;;7.13;3.90;;;26.90;41.70;;;;;;5071696;28;20071;-73
2021/06/14 12:03:15;;;;;;;7.25;4.15;;;26.90;41.40;;;;;;5069627;28;20041;-73
2021/06/14 12:05:40;;;;;;;9.10;5.05;;;27.00;41.70;;;;;;5071715;28;20048;-74
2021/06/14 12:08:08;;;;;;;9.70;4.30;;;27.10;41.80;;;;;;5070083;28;20140;-74
2021/06/14 12:10:34;;;;;;;6.25;4.07;;;27.20;41.90;;;;;;5071169;28;20123;-74
2021/06/14 12:13:07;;;;;;;10.35;4.20;;;27.20;41.20;;;;;;5071180;28;20072;-74
2021/06/14 12:15:34;;;;;;;8.18;3.92;;;27.40;40.70;;;;;;5070519;28;20045;-73
2021/06/14 12:18:02;;;;;;;7.65;3.85;;;27.50;40.20;;;;;;5070945;28;20136;-73
2021/06/14 12:20:31;;;;;;;9.90;4.85;;;27.60;40.10;;;;;;5071483;28;20099;-79
2021/06/14 12:23:09;;;;;;;8.68;4.53;;;27.60;40.00;;;;;;5070722;28;20051;-75
2021/06/14 12:25:48;;;;;;;6.93;4.28;;;27.60;40.80;;;;;;5070931;28;20060;-74
2021/06/14 12:28:20;;;;;;;9.60;5.35;;;27.60;41.20;;;;;;5070929;28;20469;-75
2021/06/14 12:30:49;;;;;;;7.65;4.95;;;27.70;40.50;;;;;;5070587;28;20394;-73
2021/06/14 12:33:26;;;;;;;6.95;4.25;;;27.70;40.30;;;;;;5070624;28;20052;-76
2021/06/14 12:35:53;;;;;;;9.70;5.68;;;27.70;40.40;;;;;;5070601;28;20052;-75
2021/06/14 12:38:19;;;;;;;10.93;5.38;;;27.70;40.30;;;;;;5070749;28;20052;-73
2021/06/14 12:40:44;;;;;;;14.30;4.50;;;27.70;40.80;;;;;;5071699;28;20048;-74
2021/06/14 12:43:12;;;;;;;10.60;5.95;;;27.70;40.70;;;;;;5070316;28;20053;-74
2021/06/14 12:45:39;;;;;;;7.10;4.57;;;27.70;40.40;;;;;;5071339;28;20091;-74